Terminal Aerodrome Forecast
Issued by NWS

Home | Current Version | Previous Version | Text Only | Print | Product List | Glossary On
Versions: 1 2 3 4 5 6 7 8 9 10 11 12 13
000
FTUS45 KLKN 201120
TAFWMC
TAF
KWMC 201120Z 2012/2112 25017G27KT 5SM -RA SCT030 OVC050
      TEMPO 2012/2014 27025G35KT 2SM RA BKN015 OVC030
     FM201400 26012G22KT P6SM -SHRA OVC050
     FM201800 27015G25KT P6SM BKN050
     FM210100 26006KT P6SM BKN070=

USA.gov is the U.S. government's official web portal to all federal, state and local government web resources and services.